sensor_id;sensor_type;location;lat;lon;timestamp;temperature;humidity
8709;DHT22;4391;48.678;9.280;2024-03-25T00:01:24;4.50;1.00
8709;DHT22;4391;48.678;9.280;2024-03-25T00:03:51;4.50;1.00
8709;DHT22;4391;48.678;9.280;2024-03-25T00:06:18;4.50;1.00
8709;DHT22;4391;48.678;9.280;2024-03-25T00:08:44;4.50;1.00
8709;DHT22;4391;48.678;9.280;2024-03-25T00:11:10;4.50;1.00
8709;DHT22;4391;48.678;9.280;2024-03-25T00:13:36;4.50;1.00
8709;DHT22;4391;48.678;9.280;2024-03-25T00:16:04;4.50;1.00
8709;DHT22;4391;48.678;9.280;2024-03-25T00:18:30;4.50;1.00
8709;DHT22;4391;48.678;9.280;2024-03-25T00:20:59;4.50;1.00
8709;DHT22;4391;48.678;9.280;2024-03-25T00:23:25;4.50;1.00
8709;DHT22;4391;48.678;9.280;2024-03-25T00:25:52;4.50;1.00
8709;DHT22;4391;48.678;9.280;2024-03-25T00:28:18;4.50;1.00
8709;DHT22;4391;48.678;9.280;2024-03-25T00:30:45;4.50;1.00
8709;DHT22;4391;48.678;9.280;2024-03-25T00:33:11;4.40;1.00
8709;DHT22;4391;48.678;9.280;2024-03-25T00:35:38;4.50;1.00
8709;DHT22;4391;48.678;9.280;2024-03-25T00:38:05;4.50;1.00
8709;DHT22;4391;48.678;9.280;2024-03-25T00:40:32;4.50;1.00
8709;DHT22;4391;48.678;9.280;2024-03-25T00:42:59;4.50;1.00
8709;DHT22;4391;48.678;9.280;2024-03-25T00:45:26;4.50;1.00
8709;DHT22;4391;48.678;9.280;2024-03-25T00:47:56;4.50;1.00
8709;DHT22;4391;48.678;9.280;2024-03-25T00:50:23;4.50;1.00
8709;DHT22;4391;48.678;9.280;2024-03-25T00:52:48;4.50;1.00
8709;DHT22;4391;48.678;9.280;2024-03-25T00:55:17;4.50;1.00
8709;DHT22;4391;48.678;9.280;2024-03-25T00:57:42;4.50;1.00
8709;DHT22;4391;48.678;9.280;2024-03-25T01:00:10;4.50;1.00
8709;DHT22;4391;48.678;9.280;2024-03-25T01:02:36;4.50;1.00
8709;DHT22;4391;48.678;9.280;2024-03-25T01:05:04;4.50;1.00
8709;DHT22;4391;48.678;9.280;2024-03-25T01:07:30;4.50;1.00
8709;DHT22;4391;48.678;9.280;2024-03-25T01:09:57;4.50;1.00
8709;DHT22;4391;48.678;9.280;2024-03-25T01:12:25;4.50;1.00
8709;DHT22;4391;48.678;9.280;2024-03-25T01:14:52;4.50;1.00
8709;DHT22;4391;48.678;9.280;2024-03-25T01:17:18;4.50;1.00
8709;DHT22;4391;48.678;9.280;2024-03-25T01:19:45;4.50;1.00
8709;DHT22;4391;48.678;9.280;2024-03-25T01:22:11;4.50;1.00
8709;DHT22;4391;48.678;9.280;2024-03-25T01:24:38;4.50;1.00
8709;DHT22;4391;48.678;9.280;2024-03-25T01:27:04;4.50;1.00
8709;DHT22;4391;48.678;9.280;2024-03-25T01:29:33;4.50;1.00
8709;DHT22;4391;48.678;9.280;2024-03-25T01:31:59;4.50;1.00
8709;DHT22;4391;48.678;9.280;2024-03-25T01:34:26;4.50;1.00
8709;DHT22;4391;48.678;9.280;2024-03-25T01:36:52;4.50;1.00
8709;DHT22;4391;48.678;9.280;2024-03-25T01:39:19;4.50;1.00
8709;DHT22;4391;48.678;9.280;2024-03-25T01:41:45;4.50;1.00
8709;DHT22;4391;48.678;9.280;2024-03-25T01:44:11;4.50;1.00
8709;DHT22;4391;48.678;9.280;2024-03-25T01:46:39;4.40;1.00
8709;DHT22;4391;48.678;9.280;2024-03-25T01:49:08;4.40;1.00
8709;DHT22;4391;48.678;9.280;2024-03-25T01:51:35;4.40;1.00
8709;DHT22;4391;48.678;9.280;2024-03-25T01:54:03;4.40;1.00
8709;DHT22;4391;48.678;9.280;2024-03-25T01:56:31;4.40;1.00
8709;DHT22;4391;48.678;9.280;2024-03-25T01:59:02;4.40;1.00
8709;DHT22;4391;48.678;9.280;2024-03-25T02:01:29;4.30;1.00
8709;DHT22;4391;48.678;9.280;2024-03-25T02:03:57;4.30;1.00
8709;DHT22;4391;48.678;9.280;2024-03-25T02:06:27;4.30;1.00
8709;DHT22;4391;48.678;9.280;2024-03-25T02:08:55;4.30;1.00
8709;DHT22;4391;48.678;9.280;2024-03-25T02:11:22;4.30;1.00
8709;DHT22;4391;48.678;9.280;2024-03-25T02:13:50;4.20;1.00
8709;DHT22;4391;48.678;9.280;2024-03-25T02:16:16;4.30;1.00
8709;DHT22;4391;48.678;9.280;2024-03-25T02:18:43;4.30;1.00
8709;DHT22;4391;48.678;9.280;2024-03-25T02:21:10;4.30;1.00
8709;DHT22;4391;48.678;9.280;2024-03-25T02:23:42;4.30;1.00
8709;DHT22;4391;48.678;9.280;2024-03-25T02:26:12;4.30;1.00
8709;DHT22;4391;48.678;9.280;2024-03-25T02:28:38;4.30;1.00
8709;DHT22;4391;48.678;9.280;2024-03-25T02:31:04;4.30;1.00
8709;DHT22;4391;48.678;9.280;2024-03-25T02:33:31;4.20;1.00
8709;DHT22;4391;48.678;9.280;2024-03-25T02:35:57;4.20;1.00
8709;DHT22;4391;48.678;9.280;2024-03-25T02:38:24;4.30;1.00
8709;DHT22;4391;48.678;9.280;2024-03-25T02:40:50;4.20;1.00
8709;DHT22;4391;48.678;9.280;2024-03-25T02:43:19;4.20;1.00
8709;DHT22;4391;48.678;9.280;2024-03-25T02:45:46;4.20;1.00
8709;DHT22;4391;48.678;9.280;2024-03-25T02:48:13;4.20;1.00
8709;DHT22;4391;48.678;9.280;2024-03-25T02:50:39;4.20;1.00
8709;DHT22;4391;48.678;9.280;2024-03-25T02:53:06;4.20;1.00
8709;DHT22;4391;48.678;9.280;2024-03-25T02:55:32;4.20;1.00
8709;DHT22;4391;48.678;9.280;2024-03-25T02:57:59;4.20;1.00
8709;DHT22;4391;48.678;9.280;2024-03-25T03:00:26;4.20;1.00
8709;DHT22;4391;48.678;9.280;2024-03-25T03:02:53;4.10;1.00
8709;DHT22;4391;48.678;9.280;2024-03-25T03:05:19;4.20;1.00
8709;DHT22;4391;48.678;9.280;2024-03-25T03:07:45;4.20;1.00
8709;DHT22;4391;48.678;9.280;2024-03-25T03:10:11;4.10;1.00
8709;DHT22;4391;48.678;9.280;2024-03-25T03:12:38;4.10;1.00
8709;DHT22;4391;48.678;9.280;2024-03-25T03:15:05;4.10;1.00
8709;DHT22;4391;48.678;9.280;2024-03-25T03:17:33;4.10;1.00
8709;DHT22;4391;48.678;9.280;2024-03-25T03:19:59;4.10;1.00
8709;DHT22;4391;48.678;9.280;2024-03-25T03:22:26;4.10;1.00
8709;DHT22;4391;48.678;9.280;2024-03-25T03:24:52;4.10;1.00
8709;DHT22;4391;48.678;9.280;2024-03-25T03:27:19;4.10;1.00
8709;DHT22;4391;48.678;9.280;2024-03-25T03:29:44;4.10;1.00
8709;DHT22;4391;48.678;9.280;2024-03-25T03:32:11;4.10;1.00
8709;DHT22;4391;48.678;9.280;2024-03-25T03:34:38;4.10;1.00
8709;DHT22;4391;48.678;9.280;2024-03-25T03:37:05;4.10;1.00
8709;DHT22;4391;48.678;9.280;2024-03-25T03:39:31;4.10;1.00
8709;DHT22;4391;48.678;9.280;2024-03-25T03:41:58;4.10;1.00
8709;DHT22;4391;48.678;9.280;2024-03-25T03:44:24;4.10;1.00
8709;DHT22;4391;48.678;9.280;2024-03-25T03:46:51;4.00;1.00
8709;DHT22;4391;48.678;9.280;2024-03-25T03:49:16;4.10;1.00
8709;DHT22;4391;48.678;9.280;2024-03-25T03:51:45;4.00;1.00
8709;DHT22;4391;48.678;9.280;2024-03-25T03:54:10;4.10;1.00
8709;DHT22;4391;48.678;9.280;2024-03-25T03:56:37;4.00;1.00
8709;DHT22;4391;48.678;9.280;2024-03-25T03:59:03;4.10;1.00
8709;DHT22;4391;48.678;9.280;2024-03-25T04:01:30;4.00;1.00
8709;DHT22;4391;48.678;9.280;2024-03-25T04:03:56;4.00;1.00
8709;DHT22;4391;48.678;9.280;2024-03-25T04:06:23;4.10;1.00
8709;DHT22;4391;48.678;9.280;2024-03-25T04:08:50;4.10;1.00
8709;DHT22;4391;48.678;9.280;2024-03-25T04:11:17;4.10;1.00
8709;DHT22;4391;48.678;9.280;2024-03-25T04:13:43;4.00;1.00
8709;DHT22;4391;48.678;9.280;2024-03-25T04:16:10;4.00;3.40
8709;DHT22;4391;48.678;9.280;2024-03-25T04:18:36;3.90;7.60
8709;DHT22;4391;48.678;9.280;2024-03-25T04:21:03;4.00;10.60
8709;DHT22;4391;48.678;9.280;2024-03-25T04:23:29;3.90;3.30
8709;DHT22;4391;48.678;9.280;2024-03-25T04:26:00;3.90;8.80
8709;DHT22;4391;48.678;9.280;2024-03-25T04:28:26;4.00;6.70
8709;DHT22;4391;48.678;9.280;2024-03-25T04:30:53;3.90;3.30
8709;DHT22;4391;48.678;9.280;2024-03-25T04:33:20;3.90;6.00
8709;DHT22;4391;48.678;9.280;2024-03-25T04:35:47;3.90;8.20
8709;DHT22;4391;48.678;9.280;2024-03-25T04:38:15;3.90;3.90
8709;DHT22;4391;48.678;9.280;2024-03-25T04:40:41;3.90;7.00
8709;DHT22;4391;48.678;9.280;2024-03-25T04:43:08;3.90;9.10
8709;DHT22;4391;48.678;9.280;2024-03-25T04:45:34;3.90;3.60
8709;DHT22;4391;48.678;9.280;2024-03-25T04:48:00;3.90;1.00
8709;DHT22;4391;48.678;9.280;2024-03-25T04:52:54;3.80;3.40
8709;DHT22;4391;48.678;9.280;2024-03-25T04:55:20;3.80;6.70
8709;DHT22;4391;48.678;9.280;2024-03-25T04:57:45;3.70;9.70
8709;DHT22;4391;48.678;9.280;2024-03-25T05:00:14;3.70;15.00
8709;DHT22;4391;48.678;9.280;2024-03-25T05:02:40;3.60;19.20
8709;DHT22;4391;48.678;9.280;2024-03-25T05:05:06;3.60;26.00
8709;DHT22;4391;48.678;9.280;2024-03-25T05:07:32;3.60;27.30
8709;DHT22;4391;48.678;9.280;2024-03-25T05:09:58;3.60;24.40
8709;DHT22;4391;48.678;9.280;2024-03-25T05:12:24;3.60;26.20
8709;DHT22;4391;48.678;9.280;2024-03-25T05:14:50;3.60;22.10
8709;DHT22;4391;48.678;9.280;2024-03-25T05:17:17;3.60;20.90
8709;DHT22;4391;48.678;9.280;2024-03-25T05:19:43;3.70;3.90
8709;DHT22;4391;48.678;9.280;2024-03-25T05:22:09;3.70;4.90
8709;DHT22;4391;48.678;9.280;2024-03-25T05:24:35;3.70;2.90
8709;DHT22;4391;48.678;9.280;2024-03-25T05:27:00;3.70;2.40
8709;DHT22;4391;48.678;9.280;2024-03-25T05:29:26;3.70;1.00
8709;DHT22;4391;48.678;9.280;2024-03-25T05:31:57;3.80;1.00
8709;DHT22;4391;48.678;9.280;2024-03-25T05:34:25;3.80;1.00
8709;DHT22;4391;48.678;9.280;2024-03-25T05:36:51;3.70;1.00
8709;DHT22;4391;48.678;9.280;2024-03-25T05:39:17;3.80;1.00
8709;DHT22;4391;48.678;9.280;2024-03-25T05:41:43;3.80;1.00
8709;DHT22;4391;48.678;9.280;2024-03-25T05:44:09;3.70;1.00
8709;DHT22;4391;48.678;9.280;2024-03-25T05:46:35;3.80;1.00
8709;DHT22;4391;48.678;9.280;2024-03-25T05:49:04;3.70;1.00
8709;DHT22;4391;48.678;9.280;2024-03-25T05:51:32;3.80;1.00
8709;DHT22;4391;48.678;9.280;2024-03-25T05:53:58;3.80;1.00
8709;DHT22;4391;48.678;9.280;2024-03-25T05:56:24;3.80;1.00
8709;DHT22;4391;48.678;9.280;2024-03-25T05:58:50;3.80;1.00
8709;DHT22;4391;48.678;9.280;2024-03-25T06:01:16;3.90;1.00
8709;DHT22;4391;48.678;9.280;2024-03-25T06:03:42;3.90;1.00
8709;DHT22;4391;48.678;9.280;2024-03-25T06:06:08;4.00;1.00
8709;DHT22;4391;48.678;9.280;2024-03-25T06:08:35;4.00;1.00
8709;DHT22;4391;48.678;9.280;2024-03-25T06:11:01;4.10;1.00
8709;DHT22;4391;48.678;9.280;2024-03-25T06:13:27;4.20;1.00
8709;DHT22;4391;48.678;9.280;2024-03-25T06:15:53;4.30;1.00
8709;DHT22;4391;48.678;9.280;2024-03-25T06:18:20;4.30;1.00
8709;DHT22;4391;48.678;9.280;2024-03-25T06:20:46;4.30;1.00
8709;DHT22;4391;48.678;9.280;2024-03-25T06:23:22;4.40;1.00
8709;DHT22;4391;48.678;9.280;2024-03-25T06:25:50;4.50;1.00
8709;DHT22;4391;48.678;9.280;2024-03-25T06:28:16;4.60;1.00
8709;DHT22;4391;48.678;9.280;2024-03-25T06:30:42;4.80;1.00
8709;DHT22;4391;48.678;9.280;2024-03-25T06:33:27;5.00;99.90
8709;DHT22;4391;48.678;9.280;2024-03-25T06:36:11;5.20;99.90
8709;DHT22;4391;48.678;9.280;2024-03-25T06:38:37;5.20;99.90
8709;DHT22;4391;48.678;9.280;2024-03-25T06:41:04;5.40;99.90
8709;DHT22;4391;48.678;9.280;2024-03-25T06:43:30;5.80;99.90
8709;DHT22;4391;48.678;9.280;2024-03-25T06:45:56;6.10;99.90
8709;DHT22;4391;48.678;9.280;2024-03-25T06:48:22;6.60;99.90
8709;DHT22;4391;48.678;9.280;2024-03-25T06:50:54;6.50;1.00
8709;DHT22;4391;48.678;9.280;2024-03-25T06:53:21;6.40;99.90
8709;DHT22;4391;48.678;9.280;2024-03-25T06:55:54;6.30;99.90
8709;DHT22;4391;48.678;9.280;2024-03-25T06:58:22;6.00;1.00
8709;DHT22;4391;48.678;9.280;2024-03-25T07:00:49;5.90;1.00
8709;DHT22;4391;48.678;9.280;2024-03-25T07:03:15;5.90;70.30
8709;DHT22;4391;48.678;9.280;2024-03-25T07:05:43;5.80;1.00
8709;DHT22;4391;48.678;9.280;2024-03-25T07:08:09;5.90;47.50
8709;DHT22;4391;48.678;9.280;2024-03-25T07:10:35;5.80;99.90
8709;DHT22;4391;48.678;9.280;2024-03-25T07:13:01;5.90;99.90
8709;DHT22;4391;48.678;9.280;2024-03-25T07:15:29;6.00;1.00
8709;DHT22;4391;48.678;9.280;2024-03-25T07:17:54;5.90;1.00
8709;DHT22;4391;48.678;9.280;2024-03-25T07:20:20;5.90;99.90
8709;DHT22;4391;48.678;9.280;2024-03-25T07:22:46;6.00;1.00
8709;DHT22;4391;48.678;9.280;2024-03-25T07:25:12;6.00;99.90
8709;DHT22;4391;48.678;9.280;2024-03-25T07:27:38;6.20;99.90
8709;DHT22;4391;48.678;9.280;2024-03-25T07:30:05;6.30;99.90
8709;DHT22;4391;48.678;9.280;2024-03-25T07:32:33;6.20;1.00
8709;DHT22;4391;48.678;9.280;2024-03-25T07:34:59;6.20;22.10
8709;DHT22;4391;48.678;9.280;2024-03-25T07:37:25;6.20;99.90
8709;DHT22;4391;48.678;9.280;2024-03-25T07:39:51;6.20;1.00
8709;DHT22;4391;48.678;9.280;2024-03-25T07:42:17;6.20;1.00
8709;DHT22;4391;48.678;9.280;2024-03-25T07:44:43;6.20;86.80
8709;DHT22;4391;48.678;9.280;2024-03-25T07:47:09;6.10;99.90
8709;DHT22;4391;48.678;9.280;2024-03-25T07:49:36;6.20;99.90
8709;DHT22;4391;48.678;9.280;2024-03-25T07:52:03;6.50;1.00
8709;DHT22;4391;48.678;9.280;2024-03-25T07:54:29;6.90;99.90
8709;DHT22;4391;48.678;9.280;2024-03-25T07:56:55;7.20;99.90
8709;DHT22;4391;48.678;9.280;2024-03-25T07:59:21;7.30;1.00
8709;DHT22;4391;48.678;9.280;2024-03-25T08:01:47;7.70;1.00
8709;DHT22;4391;48.678;9.280;2024-03-25T08:04:12;8.00;1.00
8709;DHT22;4391;48.678;9.280;2024-03-25T08:06:40;8.20;99.90
8709;DHT22;4391;48.678;9.280;2024-03-25T08:09:06;8.50;99.90
8709;DHT22;4391;48.678;9.280;2024-03-25T08:11:32;8.70;99.90
8709;DHT22;4391;48.678;9.280;2024-03-25T08:13:58;8.90;41.70
8709;DHT22;4391;48.678;9.280;2024-03-25T08:16:24;8.90;7.20
8709;DHT22;4391;48.678;9.280;2024-03-25T08:18:50;9.00;1.00
8709;DHT22;4391;48.678;9.280;2024-03-25T08:21:16;9.30;1.00
8709;DHT22;4391;48.678;9.280;2024-03-25T08:23:44;9.70;1.00
8709;DHT22;4391;48.678;9.280;2024-03-25T08:26:10;10.00;1.00
8709;DHT22;4391;48.678;9.280;2024-03-25T08:28:36;10.20;1.00
8709;DHT22;4391;48.678;9.280;2024-03-25T08:31:03;10.60;1.00
8709;DHT22;4391;48.678;9.280;2024-03-25T08:33:29;10.80;1.00
8709;DHT22;4391;48.678;9.280;2024-03-25T08:35:54;10.80;99.90
8709;DHT22;4391;48.678;9.280;2024-03-25T08:38:20;10.80;99.90
8709;DHT22;4391;48.678;9.280;2024-03-25T08:40:48;10.90;99.90
8709;DHT22;4391;48.678;9.280;2024-03-25T08:43:14;11.10;99.90
8709;DHT22;4391;48.678;9.280;2024-03-25T08:45:40;11.00;99.90
8709;DHT22;4391;48.678;9.280;2024-03-25T08:48:06;10.80;99.90
8709;DHT22;4391;48.678;9.280;2024-03-25T08:50:32;10.50;99.90
8709;DHT22;4391;48.678;9.280;2024-03-25T08:52:58;10.20;99.90
8709;DHT22;4391;48.678;9.280;2024-03-25T08:55:24;10.30;99.90
8709;DHT22;4391;48.678;9.280;2024-03-25T08:57:51;10.50;99.90
8709;DHT22;4391;48.678;9.280;2024-03-25T09:00:18;10.90;99.90
8709;DHT22;4391;48.678;9.280;2024-03-25T09:02:44;11.30;99.90
8709;DHT22;4391;48.678;9.280;2024-03-25T09:05:10;11.80;99.90
8709;DHT22;4391;48.678;9.280;2024-03-25T09:07:36;12.00;99.90
8709;DHT22;4391;48.678;9.280;2024-03-25T09:10:03;12.30;99.90
8709;DHT22;4391;48.678;9.280;2024-03-25T09:12:47;12.30;99.90
8709;DHT22;4391;48.678;9.280;2024-03-25T09:15:14;12.20;99.90
8709;DHT22;4391;48.678;9.280;2024-03-25T09:17:40;12.40;99.90
8709;DHT22;4391;48.678;9.280;2024-03-25T09:20:07;12.60;99.90
8709;DHT22;4391;48.678;9.280;2024-03-25T09:22:33;12.90;99.90
8709;DHT22;4391;48.678;9.280;2024-03-25T09:24:59;13.10;99.90
8709;DHT22;4391;48.678;9.280;2024-03-25T09:27:25;13.30;99.90
8709;DHT22;4391;48.678;9.280;2024-03-25T09:29:51;13.40;99.90
8709;DHT22;4391;48.678;9.280;2024-03-25T09:32:19;13.30;99.90
8709;DHT22;4391;48.678;9.280;2024-03-25T09:34:44;13.50;99.90
8709;DHT22;4391;48.678;9.280;2024-03-25T09:37:10;13.80;99.90
8709;DHT22;4391;48.678;9.280;2024-03-25T09:39:36;13.90;99.90
8709;DHT22;4391;48.678;9.280;2024-03-25T09:42:08;13.90;99.90
8709;DHT22;4391;48.678;9.280;2024-03-25T09:44:34;14.20;99.90
8709;DHT22;4391;48.678;9.280;2024-03-25T09:47:00;14.20;99.90
8709;DHT22;4391;48.678;9.280;2024-03-25T09:49:28;14.20;99.90
8709;DHT22;4391;48.678;9.280;2024-03-25T09:51:55;14.40;99.90
8709;DHT22;4391;48.678;9.280;2024-03-25T09:54:21;14.80;99.90
8709;DHT22;4391;48.678;9.280;2024-03-25T09:56:48;15.10;99.90
8709;DHT22;4391;48.678;9.280;2024-03-25T09:59:15;15.70;99.90
8709;DHT22;4391;48.678;9.280;2024-03-25T10:01:42;16.10;99.90
8709;DHT22;4391;48.678;9.280;2024-03-25T10:04:08;16.00;99.90
8709;DHT22;4391;48.678;9.280;2024-03-25T10:06:35;15.40;99.90
8709;DHT22;4391;48.678;9.280;2024-03-25T10:09:05;15.70;99.90
8709;DHT22;4391;48.678;9.280;2024-03-25T10:11:31;16.50;99.90
8709;DHT22;4391;48.678;9.280;2024-03-25T10:13:58;17.20;99.90
8709;DHT22;4391;48.678;9.280;2024-03-25T10:16:23;17.30;99.90
8709;DHT22;4391;48.678;9.280;2024-03-25T10:18:49;17.60;99.90
8709;DHT22;4391;48.678;9.280;2024-03-25T10:21:19;18.30;99.90
8709;DHT22;4391;48.678;9.280;2024-03-25T10:23:47;19.10;99.90
8709;DHT22;4391;48.678;9.280;2024-03-25T10:26:26;18.60;99.90
8709;DHT22;4391;48.678;9.280;2024-03-25T10:28:59;18.10;99.90
8709;DHT22;4391;48.678;9.280;2024-03-25T10:31:25;17.30;99.90
8709;DHT22;4391;48.678;9.280;2024-03-25T10:33:52;16.70;99.90
8709;DHT22;4391;48.678;9.280;2024-03-25T10:36:19;15.90;99.90
8709;DHT22;4391;48.678;9.280;2024-03-25T10:38:49;15.20;99.90
8709;DHT22;4391;48.678;9.280;2024-03-25T10:41:17;14.70;99.90
8709;DHT22;4391;48.678;9.280;2024-03-25T10:43:46;14.30;99.90
8709;DHT22;4391;48.678;9.280;2024-03-25T10:46:17;14.20;99.90
8709;DHT22;4391;48.678;9.280;2024-03-25T10:48:48;13.90;99.90
8709;DHT22;4391;48.678;9.280;2024-03-25T10:51:20;13.50;99.90
8709;DHT22;4391;48.678;9.280;2024-03-25T10:53:49;13.20;99.90
8709;DHT22;4391;48.678;9.280;2024-03-25T10:56:20;12.80;99.90
8709;DHT22;4391;48.678;9.280;2024-03-25T10:58:47;12.70;99.90
8709;DHT22;4391;48.678;9.280;2024-03-25T11:01:17;12.70;99.90
8709;DHT22;4391;48.678;9.280;2024-03-25T11:03:45;12.60;99.90
8709;DHT22;4391;48.678;9.280;2024-03-25T11:06:11;12.80;99.90
8709;DHT22;4391;48.678;9.280;2024-03-25T11:08:37;13.00;99.90
8709;DHT22;4391;48.678;9.280;2024-03-25T11:11:05;13.00;99.90
8709;DHT22;4391;48.678;9.280;2024-03-25T11:13:31;13.00;99.90
8709;DHT22;4391;48.678;9.280;2024-03-25T11:15:58;13.00;99.90
8709;DHT22;4391;48.678;9.280;2024-03-25T11:18:27;13.10;99.90
8709;DHT22;4391;48.678;9.280;2024-03-25T11:21:00;13.20;99.90
8709;DHT22;4391;48.678;9.280;2024-03-25T11:23:26;13.40;99.90
8709;DHT22;4391;48.678;9.280;2024-03-25T11:25:55;13.90;99.90
8709;DHT22;4391;48.678;9.280;2024-03-25T11:28:28;14.50;99.90
8709;DHT22;4391;48.678;9.280;2024-03-25T11:30:55;14.90;99.90
8709;DHT22;4391;48.678;9.280;2024-03-25T11:33:22;15.10;99.90
8709;DHT22;4391;48.678;9.280;2024-03-25T11:35:48;15.40;99.90
8709;DHT22;4391;48.678;9.280;2024-03-25T11:38:14;16.50;99.90
8709;DHT22;4391;48.678;9.280;2024-03-25T11:40:42;18.20;99.90
8709;DHT22;4391;48.678;9.280;2024-03-25T11:43:09;19.70;99.90
8709;DHT22;4391;48.678;9.280;2024-03-25T11:45:37;21.50;99.90
8709;DHT22;4391;48.678;9.280;2024-03-25T11:48:03;22.50;99.90
8709;DHT22;4391;48.678;9.280;2024-03-25T11:50:29;22.60;99.90
8709;DHT22;4391;48.678;9.280;2024-03-25T11:52:55;22.90;99.90
8709;DHT22;4391;48.678;9.280;2024-03-25T11:55:21;23.70;99.90
8709;DHT22;4391;48.678;9.280;2024-03-25T11:57:54;24.40;99.90
8709;DHT22;4391;48.678;9.280;2024-03-25T12:00:20;23.40;99.90
8709;DHT22;4391;48.678;9.280;2024-03-25T12:02:48;22.30;99.90
8709;DHT22;4391;48.678;9.280;2024-03-25T12:05:14;22.80;99.90
8709;DHT22;4391;48.678;9.280;2024-03-25T12:07:40;23.80;99.90
8709;DHT22;4391;48.678;9.280;2024-03-25T12:10:06;25.20;99.90
8709;DHT22;4391;48.678;9.280;2024-03-25T12:12:51;25.70;99.90
8709;DHT22;4391;48.678;9.280;2024-03-25T12:15:17;26.10;99.90
8709;DHT22;4391;48.678;9.280;2024-03-25T12:17:43;26.40;99.90
8709;DHT22;4391;48.678;9.280;2024-03-25T12:20:11;26.90;99.90
8709;DHT22;4391;48.678;9.280;2024-03-25T12:22:37;27.00;99.90
8709;DHT22;4391;48.678;9.280;2024-03-25T12:25:04;27.60;99.90
8709;DHT22;4391;48.678;9.280;2024-03-25T12:27:31;27.80;99.90
8709;DHT22;4391;48.678;9.280;2024-03-25T12:29:59;27.90;99.90
8709;DHT22;4391;48.678;9.280;2024-03-25T12:32:37;26.50;99.90
8709;DHT22;4391;48.678;9.280;2024-03-25T12:35:03;24.60;99.90
8709;DHT22;4391;48.678;9.280;2024-03-25T12:37:33;23.90;99.90
8709;DHT22;4391;48.678;9.280;2024-03-25T12:39:59;23.60;99.90
8709;DHT22;4391;48.678;9.280;2024-03-25T12:42:25;23.60;99.90
8709;DHT22;4391;48.678;9.280;2024-03-25T12:44:51;24.40;99.90
8709;DHT22;4391;48.678;9.280;2024-03-25T12:47:17;25.10;99.90
8709;DHT22;4391;48.678;9.280;2024-03-25T12:49:43;26.30;99.90
8709;DHT22;4391;48.678;9.280;2024-03-25T12:52:09;27.30;99.90
8709;DHT22;4391;48.678;9.280;2024-03-25T12:54:36;28.00;99.90
8709;DHT22;4391;48.678;9.280;2024-03-25T12:57:03;28.40;99.90
8709;DHT22;4391;48.678;9.280;2024-03-25T12:59:28;28.60;99.90
8709;DHT22;4391;48.678;9.280;2024-03-25T13:01:56;29.30;99.90
8709;DHT22;4391;48.678;9.280;2024-03-25T13:04:22;29.60;99.90
8709;DHT22;4391;48.678;9.280;2024-03-25T13:06:48;29.40;99.90
8709;DHT22;4391;48.678;9.280;2024-03-25T13:09:13;27.80;99.90
8709;DHT22;4391;48.678;9.280;2024-03-25T13:11:41;27.20;99.90
8709;DHT22;4391;48.678;9.280;2024-03-25T13:14:07;26.90;99.90
8709;DHT22;4391;48.678;9.280;2024-03-25T13:16:33;26.40;99.90
8709;DHT22;4391;48.678;9.280;2024-03-25T13:18:59;26.30;99.90
8709;DHT22;4391;48.678;9.280;2024-03-25T13:21:25;27.20;99.90
8709;DHT22;4391;48.678;9.280;2024-03-25T13:23:51;27.80;99.90
8709;DHT22;4391;48.678;9.280;2024-03-25T13:26:16;27.90;99.90
8709;DHT22;4391;48.678;9.280;2024-03-25T13:28:44;28.40;99.90
8709;DHT22;4391;48.678;9.280;2024-03-25T13:31:10;28.80;99.90
8709;DHT22;4391;48.678;9.280;2024-03-25T13:33:36;28.90;99.90
8709;DHT22;4391;48.678;9.280;2024-03-25T13:36:02;28.90;99.90
8709;DHT22;4391;48.678;9.280;2024-03-25T13:38:28;29.20;99.90
8709;DHT22;4391;48.678;9.280;2024-03-25T13:40:54;29.20;99.90
8709;DHT22;4391;48.678;9.280;2024-03-25T13:43:20;29.00;99.90
8709;DHT22;4391;48.678;9.280;2024-03-25T13:45:48;28.60;99.90
8709;DHT22;4391;48.678;9.280;2024-03-25T13:48:15;28.30;99.90
8709;DHT22;4391;48.678;9.280;2024-03-25T13:50:41;28.60;99.90
8709;DHT22;4391;48.678;9.280;2024-03-25T13:53:07;28.90;99.90
8709;DHT22;4391;48.678;9.280;2024-03-25T13:55:33;28.70;99.90
8709;DHT22;4391;48.678;9.280;2024-03-25T13:57:59;27.00;99.90
8709;DHT22;4391;48.678;9.280;2024-03-25T14:00:25;26.10;99.90
8709;DHT22;4391;48.678;9.280;2024-03-25T14:02:53;25.90;99.90
8709;DHT22;4391;48.678;9.280;2024-03-25T14:05:19;26.00;99.90
8709;DHT22;4391;48.678;9.280;2024-03-25T14:07:45;26.60;99.90
8709;DHT22;4391;48.678;9.280;2024-03-25T14:10:11;27.40;99.90
8709;DHT22;4391;48.678;9.280;2024-03-25T14:12:37;28.20;99.90
8709;DHT22;4391;48.678;9.280;2024-03-25T14:15:03;27.50;99.90
8709;DHT22;4391;48.678;9.280;2024-03-25T14:17:29;27.80;99.90
8709;DHT22;4391;48.678;9.280;2024-03-25T14:19:57;27.60;99.90
8709;DHT22;4391;48.678;9.280;2024-03-25T14:22:23;27.50;99.90
8709;DHT22;4391;48.678;9.280;2024-03-25T14:24:49;27.40;99.90
8709;DHT22;4391;48.678;9.280;2024-03-25T14:27:15;28.10;99.90
8709;DHT22;4391;48.678;9.280;2024-03-25T14:29:41;28.60;99.90
8709;DHT22;4391;48.678;9.280;2024-03-25T14:32:08;28.40;99.90
8709;DHT22;4391;48.678;9.280;2024-03-25T14:34:34;28.30;99.90
8709;DHT22;4391;48.678;9.280;2024-03-25T14:37:01;27.10;99.90
8709;DHT22;4391;48.678;9.280;2024-03-25T14:39:27;26.30;99.90
8709;DHT22;4391;48.678;9.280;2024-03-25T14:41:53;25.80;99.90
8709;DHT22;4391;48.678;9.280;2024-03-25T14:44:19;25.70;99.90
8709;DHT22;4391;48.678;9.280;2024-03-25T14:46:45;25.80;99.90
8709;DHT22;4391;48.678;9.280;2024-03-25T14:49:13;25.50;99.90
8709;DHT22;4391;48.678;9.280;2024-03-25T14:51:39;24.90;99.90
8709;DHT22;4391;48.678;9.280;2024-03-25T14:54:07;25.00;99.90
8709;DHT22;4391;48.678;9.280;2024-03-25T14:56:33;25.10;99.90
8709;DHT22;4391;48.678;9.280;2024-03-25T14:58:59;24.80;99.90
8709;DHT22;4391;48.678;9.280;2024-03-25T15:01:25;25.00;99.90
8709;DHT22;4391;48.678;9.280;2024-03-25T15:03:51;25.10;99.90
8709;DHT22;4391;48.678;9.280;2024-03-25T15:06:17;25.10;99.90
8709;DHT22;4391;48.678;9.280;2024-03-25T15:08:43;25.30;99.90
8709;DHT22;4391;48.678;9.280;2024-03-25T15:11:11;25.40;99.90
8709;DHT22;4391;48.678;9.280;2024-03-25T15:13:37;24.80;99.90
8709;DHT22;4391;48.678;9.280;2024-03-25T15:16:04;25.10;99.90
8709;DHT22;4391;48.678;9.280;2024-03-25T15:18:30;25.20;99.90
8709;DHT22;4391;48.678;9.280;2024-03-25T15:21:02;25.10;99.90
8709;DHT22;4391;48.678;9.280;2024-03-25T15:23:30;24.80;99.90
8709;DHT22;4391;48.678;9.280;2024-03-25T15:25:56;24.10;99.90
8709;DHT22;4391;48.678;9.280;2024-03-25T15:28:24;23.60;99.90
8709;DHT22;4391;48.678;9.280;2024-03-25T15:30:51;23.20;99.90
8709;DHT22;4391;48.678;9.280;2024-03-25T15:33:17;23.10;99.90
8709;DHT22;4391;48.678;9.280;2024-03-25T15:35:43;22.30;99.90
8709;DHT22;4391;48.678;9.280;2024-03-25T15:38:09;22.30;99.90
8709;DHT22;4391;48.678;9.280;2024-03-25T15:40:35;22.10;99.90
8709;DHT22;4391;48.678;9.280;2024-03-25T15:43:01;22.70;99.90
8709;DHT22;4391;48.678;9.280;2024-03-25T15:45:29;23.10;99.90
8709;DHT22;4391;48.678;9.280;2024-03-25T15:47:55;22.80;99.90
8709;DHT22;4391;48.678;9.280;2024-03-25T15:50:21;22.40;99.90
8709;DHT22;4391;48.678;9.280;2024-03-25T15:52:47;22.10;99.90
8709;DHT22;4391;48.678;9.280;2024-03-25T15:55:13;21.50;99.90
8709;DHT22;4391;48.678;9.280;2024-03-25T15:57:39;21.00;99.90
8709;DHT22;4391;48.678;9.280;2024-03-25T16:00:07;20.20;99.90
8709;DHT22;4391;48.678;9.280;2024-03-25T16:02:35;20.40;99.90
8709;DHT22;4391;48.678;9.280;2024-03-25T16:05:01;20.20;99.90
8709;DHT22;4391;48.678;9.280;2024-03-25T16:07:27;19.80;99.90
8709;DHT22;4391;48.678;9.280;2024-03-25T16:09:53;18.50;99.90
8709;DHT22;4391;48.678;9.280;2024-03-25T16:12:19;17.10;99.90
8709;DHT22;4391;48.678;9.280;2024-03-25T16:14:45;15.70;99.90
8709;DHT22;4391;48.678;9.280;2024-03-25T16:17:11;14.80;99.80